Time;durP1;ratioP1;P1;durP2;ratioP2;P2;SDS_P1;SDS_P2;PMS_P1;PMS_P2;Temp;Humidity;BMP_temperature;BMP_pressure;BME280_temperature;BME280_humidity;BME280_pressure;Samples;Min_cycle;Max_cycle;Signal;HPM_P1;HPM_P2
2023/12/04 00:01:37;;;;;;;;;24.00;24.00;;;;;;;;5049854;28;10944;-80
2023/12/04 00:04:04;;;;;;;;;7.25;7.25;;;;;;;;5050469;28;11561;-81
2023/12/04 00:06:31;;;;;;;;;6.75;6.75;;;;;;;;5050865;28;11493;-82
2023/12/04 00:08:58;;;;;;;;;2.00;2.00;;;;;;;;5051679;28;11513;-82
2023/12/04 00:11:26;;;;;;;;;7.50;7.25;;;;;;;;5052682;28;11639;-81
2023/12/04 00:13:54;;;;;;;;;9.00;7.00;;;;;;;;5051258;28;11522;-81
2023/12/04 00:16:22;;;;;;;;;2.00;2.00;;;;;;;;5045625;28;11625;-81
2023/12/04 00:18:49;;;;;;;;;8.75;8.75;;;;;;;;5052777;28;11519;-81
2023/12/04 00:21:16;;;;;;;;;8.75;8.75;;;;;;;;5053036;28;11537;-81
2023/12/04 00:23:43;;;;;;;;;21.75;20.75;;;;;;;;5052530;28;11505;-82
2023/12/04 00:26:13;;;;;;;;;14.00;12.25;;;;;;;;5052765;28;11540;-81
2023/12/04 00:28:40;;;;;;;;;33.25;33.00;;;;;;;;5049800;28;11656;-81
2023/12/04 00:31:11;;;;;;;;;13.00;9.25;;;;;;;;5049786;28;11528;-80
2023/12/04 00:33:41;;;;;;;;;15.00;15.00;;;;;;;;5052569;28;11546;-81
2023/12/04 00:36:10;;;;;;;;;7.25;7.25;;;;;;;;5052103;28;11537;-81
2023/12/04 00:38:37;;;;;;;;;13.75;11.25;;;;;;;;5050616;28;11525;-81
2023/12/04 00:41:05;;;;;;;;;7.00;5.75;;;;;;;;5048811;28;11533;-80
2023/12/04 00:43:32;;;;;;;;;6.00;6.00;;;;;;;;5048946;28;12303;-80
2023/12/04 00:45:59;;;;;;;;;7.75;6.50;;;;;;;;5048384;28;11654;-80
2023/12/04 00:48:28;;;;;;;;;10.00;10.00;;;;;;;;5049514;28;12424;-80
2023/12/04 00:50:56;;;;;;;;;11.25;10.00;;;;;;;;5047640;28;11562;-80
2023/12/04 00:53:23;;;;;;;;;35.50;31.25;;;;;;;;5049080;28;11494;-80
2023/12/04 00:55:50;;;;;;;;;10.50;9.50;;;;;;;;5048412;28;11604;-81
2023/12/04 00:58:18;;;;;;;;;45.50;32.50;;;;;;;;5048776;28;11565;-81
2023/12/04 01:00:45;;;;;;;;;25.25;23.50;;;;;;;;5048055;28;12270;-81
2023/12/04 01:03:12;;;;;;;;;20.25;17.75;;;;;;;;5049482;28;11577;-80
2023/12/04 01:05:41;;;;;;;;;19.75;16.50;;;;;;;;5051395;28;12307;-82
2023/12/04 01:08:08;;;;;;;;;49.75;37.75;;;;;;;;5050202;28;11613;-79
2023/12/04 01:10:35;;;;;;;;;70.67;58.33;;;;;;;;5046147;28;11602;-79
2023/12/04 01:13:03;;;;;;;;;18.00;18.00;;;;;;;;5048676;28;8881;-80
2023/12/04 01:15:33;;;;;;;;;31.25;29.00;;;;;;;;5048682;28;11544;-81
2023/12/04 01:18:01;;;;;;;;;6.00;6.00;;;;;;;;5048973;28;11663;-80
2023/12/04 01:20:29;;;;;;;;;7.25;7.25;;;;;;;;5049179;28;11493;-80
2023/12/04 01:22:59;;;;;;;;;5.50;5.50;;;;;;;;5048740;28;11569;-81
2023/12/04 01:25:26;;;;;;;;;8.00;6.25;;;;;;;;5048374;28;11501;-80
2023/12/04 01:27:53;;;;;;;;;5.75;2.75;;;;;;;;5048734;28;11870;-79
2023/12/04 01:30:21;;;;;;;;;2.75;2.75;;;;;;;;5048249;28;11497;-80
2023/12/04 01:32:48;;;;;;;;;5.25;5.25;;;;;;;;5048604;28;11528;-81
2023/12/04 01:35:15;;;;;;;;;5.50;4.50;;;;;;;;5048581;28;11537;-80
2023/12/04 01:37:42;;;;;;;;;6.25;5.00;;;;;;;;5047748;28;11636;-80
2023/12/04 01:40:12;;;;;;;;;4.00;4.00;;;;;;;;5048723;28;11506;-81
2023/12/04 01:42:39;;;;;;;;;5.25;5.00;;;;;;;;5049278;28;11532;-81
2023/12/04 01:45:08;;;;;;;;;6.00;6.00;;;;;;;;5051877;28;11564;-81
2023/12/04 01:47:36;;;;;;;;;6.75;5.00;;;;;;;;5049658;28;11517;-81
2023/12/04 01:50:04;;;;;;;;;5.25;5.00;;;;;;;;5048705;28;11514;-82
2023/12/04 01:52:31;;;;;;;;;6.00;6.00;;;;;;;;5048265;28;11504;-81
2023/12/04 01:55:01;;;;;;;;;7.00;7.00;;;;;;;;5050259;28;11658;-80
2023/12/04 01:57:29;;;;;;;;;6.00;6.00;;;;;;;;5056004;28;11581;-80
2023/12/04 01:59:57;;;;;;;;;6.25;5.50;;;;;;;;5057920;28;11632;-80
2023/12/04 02:02:25;;;;;;;;;9.25;6.00;;;;;;;;5057385;28;11491;-81
2023/12/04 02:04:52;;;;;;;;;8.50;6.00;;;;;;;;5057168;28;11524;-81
2023/12/04 02:07:20;;;;;;;;;5.75;5.75;;;;;;;;5043017;28;11549;-81
2023/12/04 02:09:47;;;;;;;;;6.00;6.00;;;;;;;;5054464;28;11595;-80
2023/12/04 02:12:14;;;;;;;;;3.50;2.50;;;;;;;;5057009;28;11540;-81
2023/12/04 02:14:43;;;;;;;;;7.25;5.50;;;;;;;;5058393;28;11517;-82
2023/12/04 02:17:11;;;;;;;;;5.25;5.25;;;;;;;;5054424;28;12267;-81
2023/12/04 02:19:38;;;;;;;;;4.50;4.50;;;;;;;;5055566;28;11612;-80
2023/12/04 02:22:06;;;;;;;;;5.00;5.00;;;;;;;;5057894;28;11620;-81
2023/12/04 02:24:35;;;;;;;;;6.00;6.00;;;;;;;;5055551;28;11540;-80
2023/12/04 02:27:11;;;;;;;;;7.00;5.75;;;;;;;;5055270;28;11523;-79
2023/12/04 02:29:43;;;;;;;;;5.75;5.75;;;;;;;;5054553;28;11506;-82
2023/12/04 02:32:13;;;;;;;;;5.00;2.25;;;;;;;;5054183;28;11462;-81
2023/12/04 02:34:43;;;;;;;;;5.75;3.00;;;;;;;;5053636;28;11498;-82
2023/12/04 02:37:11;;;;;;;;;4.50;4.50;;;;;;;;5054486;28;11644;-81
2023/12/04 02:39:40;;;;;;;;;5.25;5.25;;;;;;;;5054278;28;11486;-80
2023/12/04 02:42:07;;;;;;;;;4.75;4.75;;;;;;;;5054045;28;11519;-81
2023/12/04 02:44:34;;;;;;;;;3.00;3.00;;;;;;;;5053967;28;11498;-80
2023/12/04 02:47:05;;;;;;;;;3.00;3.00;;;;;;;;5053562;28;11551;-81
2023/12/04 02:49:35;;;;;;;;;4.50;4.50;;;;;;;;5053047;28;11530;-81
2023/12/04 02:52:03;;;;;;;;;5.00;5.00;;;;;;;;5053362;28;11542;-80
2023/12/04 02:54:30;;;;;;;;;10.00;6.00;;;;;;;;5054357;28;11563;-81
2023/12/04 02:57:01;;;;;;;;;5.25;3.00;;;;;;;;5054505;28;11627;-81
2023/12/04 02:59:28;;;;;;;;;7.00;5.00;;;;;;;;5054505;28;11546;-80
2023/12/04 03:01:56;;;;;;;;;5.75;5.75;;;;;;;;5054125;28;11604;-81
2023/12/04 03:04:23;;;;;;;;;5.00;5.00;;;;;;;;5054057;28;11658;-81
2023/12/04 03:06:50;;;;;;;;;5.75;5.00;;;;;;;;5051950;28;11504;-81
2023/12/04 03:09:18;;;;;;;;;5.75;5.00;;;;;;;;5050526;28;11640;-81
2023/12/04 03:11:45;;;;;;;;;5.00;5.00;;;;;;;;5051002;28;11544;-81
2023/12/04 03:14:14;;;;;;;;;5.00;3.00;;;;;;;;5051161;28;11743;-81
2023/12/04 03:16:41;;;;;;;;;3.00;3.00;;;;;;;;5049548;28;11517;-81
2023/12/04 03:19:08;;;;;;;;;7.00;7.00;;;;;;;;5038309;28;11485;-81
2023/12/04 03:21:35;;;;;;;;;3.50;3.50;;;;;;;;5044149;28;11535;-81
2023/12/04 03:24:03;;;;;;;;;5.75;5.75;;;;;;;;5050764;28;11527;-82
2023/12/04 03:26:30;;;;;;;;;5.00;5.00;;;;;;;;5051179;28;11521;-80
2023/12/04 03:28:57;;;;;;;;;7.00;7.00;;;;;;;;5050456;28;11512;-81
2023/12/04 03:31:28;;;;;;;;;7.00;7.00;;;;;;;;5049640;28;12259;-81
2023/12/04 03:33:55;;;;;;;;;7.00;5.00;;;;;;;;5050112;28;11493;-81
2023/12/04 03:36:22;;;;;;;;;4.25;3.50;;;;;;;;5051035;28;11499;-82
2023/12/04 03:38:49;;;;;;;;;9.25;5.00;;;;;;;;5050193;28;11548;-81
2023/12/04 03:41:17;;;;;;;;;6.75;3.50;;;;;;;;5051142;28;11518;-81
2023/12/04 03:43:44;;;;;;;;;8.00;6.00;;;;;;;;5051018;28;11632;-80
2023/12/04 03:46:12;;;;;;;;;5.25;5.25;;;;;;;;5052002;28;11509;-80
2023/12/04 03:48:40;;;;;;;;;6.00;5.00;;;;;;;;5053471;28;11514;-81
2023/12/04 03:51:08;;;;;;;;;5.25;5.25;;;;;;;;5048909;28;11644;-80
2023/12/04 03:53:35;;;;;;;;;7.00;7.00;;;;;;;;5051307;28;12354;-80
2023/12/04 03:56:03;;;;;;;;;5.00;5.00;;;;;;;;5043112;28;11510;-80
2023/12/04 03:58:33;;;;;;;;;6.00;6.00;;;;;;;;5044928;28;11522;-79
2023/12/04 04:01:03;;;;;;;;;10.00;7.50;;;;;;;;5043068;28;11446;-80
2023/12/04 04:03:30;;;;;;;;;6.00;6.00;;;;;;;;5052240;28;11517;-81
2023/12/04 04:05:59;;;;;;;;;4.25;3.50;;;;;;;;5051655;28;11523;-80
2023/12/04 04:08:26;;;;;;;;;6.00;5.75;;;;;;;;5052911;28;12342;-81
2023/12/04 04:10:53;;;;;;;;;5.00;5.00;;;;;;;;5052888;28;11637;-81
2023/12/04 04:13:21;;;;;;;;;9.00;6.00;;;;;;;;5051458;28;11506;-81
2023/12/04 04:15:48;;;;;;;;;6.25;5.00;;;;;;;;5046863;28;11565;-81
2023/12/04 04:18:15;;;;;;;;;6.00;3.50;;;;;;;;5048386;28;11534;-81
2023/12/04 04:20:45;;;;;;;;;3.50;3.50;;;;;;;;5049249;28;11475;-81
2023/12/04 04:23:14;;;;;;;;;7.00;7.00;;;;;;;;5049601;28;11635;-81
2023/12/04 04:25:41;;;;;;;;;10.00;5.00;;;;;;;;5049584;28;11556;-81
2023/12/04 04:28:08;;;;;;;;;9.25;6.50;;;;;;;;5052333;28;11633;-82
2023/12/04 04:30:39;;;;;;;;;6.00;6.00;;;;;;;;5049727;28;11469;-83
2023/12/04 04:33:07;;;;;;;;;6.00;6.00;;;;;;;;5049865;28;11552;-82
2023/12/04 04:35:34;;;;;;;;;7.25;6.00;;;;;;;;5049291;28;11637;-82
2023/12/04 04:38:03;;;;;;;;;6.00;4.50;;;;;;;;5049855;28;11522;-82
2023/12/04 04:40:32;;;;;;;;;6.50;5.00;;;;;;;;5049654;28;11506;-83
2023/12/04 04:42:59;;;;;;;;;5.00;5.00;;;;;;;;5049482;28;12345;-82
2023/12/04 04:45:26;;;;;;;;;8.50;6.25;;;;;;;;5049532;28;11540;-81
2023/12/04 04:47:53;;;;;;;;;7.00;7.00;;;;;;;;5048354;28;12447;-82
2023/12/04 04:50:21;;;;;;;;;7.00;5.00;;;;;;;;5049713;28;11633;-82
2023/12/04 04:52:48;;;;;;;;;6.75;6.75;;;;;;;;5049271;28;11567;-83
2023/12/04 04:55:15;;;;;;;;;9.50;9.50;;;;;;;;5050410;28;11531;-82
2023/12/04 04:57:44;;;;;;;;;11.25;7.00;;;;;;;;5050497;28;11660;-83
2023/12/04 05:00:13;;;;;;;;;6.75;6.75;;;;;;;;5049572;28;11540;-81
2023/12/04 05:02:41;;;;;;;;;6.00;6.00;;;;;;;;5048999;28;11485;-84
2023/12/04 05:05:08;;;;;;;;;10.00;7.00;;;;;;;;5056333;28;10990;-82
2023/12/04 05:07:35;;;;;;;;;2.50;1.50;;;;;;;;5049658;28;11515;-82
2023/12/04 05:10:05;;;;;;;;;5.50;3.00;;;;;;;;5049821;28;11638;-84
2023/12/04 05:12:32;;;;;;;;;1.00;1.00;;;;;;;;5049184;28;11586;-83
2023/12/04 05:15:01;;;;;;;;;8.25;4.50;;;;;;;;5048431;28;11518;-81
2023/12/04 05:17:28;;;;;;;;;6.75;5.00;;;;;;;;5047048;28;11518;-81
2023/12/04 05:19:56;;;;;;;;;7.75;7.75;;;;;;;;5049025;28;11917;-83
2023/12/04 05:22:23;;;;;;;;;6.00;6.00;;;;;;;;5049221;28;11579;-81
2023/12/04 05:24:51;;;;;;;;;4.00;4.00;;;;;;;;5048198;28;11597;-81
2023/12/04 05:27:18;;;;;;;;;5.50;5.50;;;;;;;;5048218;28;11552;-81
2023/12/04 05:29:46;;;;;;;;;7.00;5.00;;;;;;;;5048215;28;11523;-81
2023/12/04 05:32:15;;;;;;;;;9.00;6.50;;;;;;;;5049270;28;11477;-81
2023/12/04 05:34:42;;;;;;;;;12.25;5.75;;;;;;;;5050787;28;11528;-81
2023/12/04 05:37:09;;;;;;;;;6.00;5.50;;;;;;;;5052660;28;11513;-81
2023/12/04 05:39:38;;;;;;;;;7.50;7.50;;;;;;;;5043794;28;11557;-81
2023/12/04 05:42:05;;;;;;;;;6.50;5.00;;;;;;;;5044791;28;11589;-81
2023/12/04 05:44:34;;;;;;;;;7.25;5.00;;;;;;;;5041120;28;11556;-81
2023/12/04 05:47:01;;;;;;;;;10.00;5.25;;;;;;;;5043694;28;11521;-82
2023/12/04 05:49:30;;;;;;;;;5.00;5.00;;;;;;;;5046983;28;11537;-81
2023/12/04 05:51:57;;;;;;;;;5.00;5.00;;;;;;;;5047075;28;11501;-83
2023/12/04 05:54:25;;;;;;;;;3.50;3.50;;;;;;;;5043489;28;11517;-82
2023/12/04 05:56:55;;;;;;;;;4.50;4.50;;;;;;;;5050436;28;11596;-82
2023/12/04 05:59:25;;;;;;;;;6.75;5.00;;;;;;;;5051246;28;11511;-80
2023/12/04 06:01:52;;;;;;;;;11.25;8.25;;;;;;;;5040127;28;11534;-81
2023/12/04 06:04:19;;;;;;;;;9.00;6.25;;;;;;;;5048424;28;11656;-80
2023/12/04 06:06:48;;;;;;;;;10.25;6.00;;;;;;;;5047468;28;12299;-81
2023/12/04 06:09:16;;;;;;;;;6.00;5.00;;;;;;;;5046686;28;11512;-79
2023/12/04 06:11:43;;;;;;;;;7.50;5.75;;;;;;;;5047314;28;11574;-79
2023/12/04 06:14:11;;;;;;;;;7.25;7.25;;;;;;;;5047609;28;11523;-83
2023/12/04 06:16:38;;;;;;;;;8.25;6.00;;;;;;;;5047414;28;12308;-82
2023/12/04 06:19:05;;;;;;;;;9.00;6.50;;;;;;;;5049405;28;11494;-75
2023/12/04 06:21:35;;;;;;;;;9.25;9.00;;;;;;;;5049944;28;11566;-82
2023/12/04 06:24:05;;;;;;;;;7.00;5.25;;;;;;;;5016608;28;11568;-82
2023/12/04 06:26:33;;;;;;;;;8.00;5.50;;;;;;;;5050592;28;11514;-82
2023/12/04 06:29:01;;;;;;;;;8.00;8.00;;;;;;;;5049008;28;11488;-81
2023/12/04 06:31:29;;;;;;;;;5.00;5.00;;;;;;;;5047296;28;11463;-81
2023/12/04 06:33:56;;;;;;;;;8.00;6.50;;;;;;;;5047217;28;11503;-80
2023/12/04 06:36:24;;;;;;;;;9.00;6.25;;;;;;;;5047799;28;11496;-76
2023/12/04 06:38:53;;;;;;;;;9.00;6.00;;;;;;;;5047229;28;12325;-80
2023/12/04 06:41:23;;;;;;;;;5.25;5.25;;;;;;;;5048197;28;11545;-79
2023/12/04 06:43:50;;;;;;;;;12.00;8.25;;;;;;;;5051324;28;11529;-77
2023/12/04 06:46:18;;;;;;;;;6.50;6.50;;;;;;;;5050615;28;11655;-75
2023/12/04 06:48:46;;;;;;;;;7.75;6.00;;;;;;;;5050759;28;11608;-75
2023/12/04 06:51:13;;;;;;;;;6.00;6.00;;;;;;;;5046477;28;11535;-82
2023/12/04 06:53:40;;;;;;;;;4.75;4.50;;;;;;;;5051051;28;11508;-82
2023/12/04 06:56:09;;;;;;;;;7.00;7.00;;;;;;;;5051407;28;11485;-82
2023/12/04 06:58:38;;;;;;;;;6.00;6.00;;;;;;;;5051188;28;11534;-80
2023/12/04 07:01:07;;;;;;;;;8.50;6.75;;;;;;;;5050873;28;11474;-75
2023/12/04 07:03:35;;;;;;;;;5.00;5.00;;;;;;;;5051602;28;12299;-81
2023/12/04 07:06:03;;;;;;;;;7.00;7.00;;;;;;;;5051811;28;11518;-82
2023/12/04 07:08:30;;;;;;;;;9.00;6.00;;;;;;;;5049974;28;12396;-76
2023/12/04 07:10:57;;;;;;;;;8.50;7.25;;;;;;;;5050985;28;11516;-81
2023/12/04 07:13:25;;;;;;;;;9.00;8.00;;;;;;;;5050852;28;11514;-79
2023/12/04 07:15:53;;;;;;;;;6.75;6.75;;;;;;;;5049952;28;11656;-82
2023/12/04 07:18:20;;;;;;;;;5.00;5.00;;;;;;;;5051976;28;11510;-83
2023/12/04 07:20:48;;;;;;;;;5.50;5.25;;;;;;;;5051455;28;11537;-81
2023/12/04 07:23:15;;;;;;;;;7.75;5.75;;;;;;;;5053987;28;11543;-79
2023/12/04 07:25:42;;;;;;;;;5.50;4.75;;;;;;;;5054729;28;11609;-78
2023/12/04 07:28:09;;;;;;;;;8.75;6.75;;;;;;;;5054149;28;11550;-77
2023/12/04 07:30:36;;;;;;;;;10.50;6.25;;;;;;;;5053642;28;10931;-79
2023/12/04 07:33:05;;;;;;;;;8.00;5.00;;;;;;;;5049906;28;11656;-83
2023/12/04 07:35:32;;;;;;;;;6.50;5.25;;;;;;;;5057064;28;12414;-82
2023/12/04 07:38:03;;;;;;;;;6.00;6.00;;;;;;;;5049466;28;11581;-79
2023/12/04 07:40:30;;;;;;;;;6.25;6.25;;;;;;;;5055453;28;11493;-82
2023/12/04 07:42:57;;;;;;;;;3.50;3.50;;;;;;;;5052131;28;11494;-75
2023/12/04 07:45:24;;;;;;;;;5.50;5.00;;;;;;;;5050493;28;11517;-80
2023/12/04 07:47:52;;;;;;;;;7.75;5.25;;;;;;;;5052411;28;11525;-78
2023/12/04 07:50:20;;;;;;;;;3.25;3.25;;;;;;;;5054053;28;11611;-81
2023/12/04 07:52:48;;;;;;;;;6.75;5.00;;;;;;;;5050731;28;11512;-82
2023/12/04 07:55:16;;;;;;;;;10.00;8.00;;;;;;;;5049820;28;11524;-85
2023/12/04 07:57:43;;;;;;;;;6.25;5.50;;;;;;;;5049310;28;11524;-83
2023/12/04 08:00:11;;;;;;;;;2.00;2.00;;;;;;;;5038979;28;11495;-83
2023/12/04 08:02:39;;;;;;;;;6.25;5.00;;;;;;;;5049528;28;11484;-82
2023/12/04 08:05:06;;;;;;;;;6.00;3.50;;;;;;;;5050252;28;12445;-82
2023/12/04 08:07:35;;;;;;;;;6.75;6.75;;;;;;;;5049659;28;11473;-82
2023/12/04 08:10:02;;;;;;;;;6.50;5.00;;;;;;;;5048808;28;11520;-83
2023/12/04 08:12:30;;;;;;;;;3.00;3.00;;;;;;;;5047568;28;11510;-79
2023/12/04 08:14:57;;;;;;;;;6.75;5.00;;;;;;;;5049175;28;11502;-76
2023/12/04 08:17:24;;;;;;;;;3.25;3.25;;;;;;;;5047823;28;11513;-79
2023/12/04 08:19:51;;;;;;;;;5.00;5.00;;;;;;;;5049164;28;11520;-75
2023/12/04 08:22:19;;;;;;;;;6.00;4.00;;;;;;;;5049222;28;12326;-81
2023/12/04 08:24:47;;;;;;;;;6.50;5.00;;;;;;;;5049543;28;11578;-76
2023/12/04 08:27:15;;;;;;;;;5.00;5.00;;;;;;;;5049284;28;11496;-76
2023/12/04 08:29:42;;;;;;;;;8.00;6.00;;;;;;;;5049064;28;11538;-77
2023/12/04 08:32:09;;;;;;;;;9.25;5.50;;;;;;;;5048572;28;11470;-76
2023/12/04 08:34:36;;;;;;;;;5.00;5.00;;;;;;;;5048916;28;11512;-77
2023/12/04 08:37:06;;;;;;;;;6.00;6.00;;;;;;;;5049338;28;11598;-76
2023/12/04 08:39:34;;;;;;;;;5.75;5.75;;;;;;;;5049185;28;11620;-76
2023/12/04 08:42:03;;;;;;;;;6.75;5.50;;;;;;;;5049212;28;11486;-77
2023/12/04 08:44:30;;;;;;;;;6.00;3.00;;;;;;;;5049617;28;11498;-76
2023/12/04 08:46:59;;;;;;;;;7.25;3.00;;;;;;;;5048391;28;11558;-81
2023/12/04 08:49:26;;;;;;;;;5.50;3.50;;;;;;;;5049049;28;12085;-82
2023/12/04 08:51:54;;;;;;;;;2.75;2.75;;;;;;;;5048945;28;11614;-83
2023/12/04 08:54:21;;;;;;;;;10.00;7.75;;;;;;;;5048843;28;11529;-81
2023/12/04 08:56:48;;;;;;;;;6.25;6.25;;;;;;;;5049133;28;11659;-82
2023/12/04 08:59:17;;;;;;;;;5.00;5.00;;;;;;;;5049072;28;11501;-81
2023/12/04 09:01:44;;;;;;;;;8.00;6.00;;;;;;;;5048618;28;11460;-83
2023/12/04 09:04:12;;;;;;;;;11.50;7.75;;;;;;;;5048461;28;11517;-82
2023/12/04 09:06:39;;;;;;;;;8.25;7.75;;;;;;;;5048532;28;11966;-80
2023/12/04 09:09:06;;;;;;;;;6.00;6.00;;;;;;;;5049746;28;11511;-80
2023/12/04 09:11:33;;;;;;;;;7.75;5.75;;;;;;;;5050695;28;12371;-81
2023/12/04 09:14:01;;;;;;;;;6.75;6.75;;;;;;;;5051598;28;11625;-81
2023/12/04 09:16:30;;;;;;;;;6.50;5.25;;;;;;;;5051933;28;11526;-81
2023/12/04 09:18:58;;;;;;;;;4.75;4.75;;;;;;;;5045561;28;11592;-83
2023/12/04 09:21:26;;;;;;;;;7.75;6.00;;;;;;;;5054759;28;11908;-80
2023/12/04 09:23:53;;;;;;;;;7.00;6.25;;;;;;;;5055736;28;11654;-80
2023/12/04 09:26:20;;;;;;;;;2.00;2.00;;;;;;;;5054465;28;11506;-79
2023/12/04 09:28:48;;;;;;;;;7.00;7.00;;;;;;;;5053956;28;11518;-83
2023/12/04 09:31:15;;;;;;;;;5.75;5.75;;;;;;;;5054446;28;11446;-80
2023/12/04 09:33:44;;;;;;;;;7.00;5.25;;;;;;;;5051407;28;11543;-80
2023/12/04 09:36:11;;;;;;;;;7.25;6.00;;;;;;;;5051519;28;11620;-80
2023/12/04 09:38:38;;;;;;;;;7.00;7.00;;;;;;;;5052470;28;11499;-80
2023/12/04 09:41:08;;;;;;;;;6.00;5.75;;;;;;;;5051408;28;11581;-80
2023/12/04 09:43:36;;;;;;;;;7.50;7.50;;;;;;;;5049546;28;11544;-76
2023/12/04 09:46:03;;;;;;;;;7.25;6.25;;;;;;;;5048516;28;11559;-83
2023/12/04 09:48:32;;;;;;;;;6.75;5.50;;;;;;;;5047889;28;11505;-82
2023/12/04 09:51:02;;;;;;;;;6.00;6.00;;;;;;;;5047195;28;11523;-82
2023/12/04 09:53:31;;;;;;;;;3.00;3.00;;;;;;;;5047328;28;11572;-81
2023/12/04 09:56:00;;;;;;;;;6.00;6.00;;;;;;;;5047727;28;11499;-80
2023/12/04 09:58:32;;;;;;;;;6.25;6.00;;;;;;;;5043695;28;11518;-82
2023/12/04 10:01:06;;;;;;;;;5.00;5.00;;;;;;;;5041782;28;11453;-84
2023/12/04 10:03:33;;;;;;;;;6.00;6.00;;;;;;;;5048242;28;11531;-81
2023/12/04 10:06:04;;;;;;;;;3.50;2.00;;;;;;;;5047954;28;11493;-82
2023/12/04 10:08:31;;;;;;;;;9.00;6.00;;;;;;;;5048454;28;11565;-83
2023/12/04 10:10:59;;;;;;;;;5.00;5.00;;;;;;;;5046336;28;11637;-81
2023/12/04 10:13:26;;;;;;;;;6.25;6.25;;;;;;;;5050667;28;12330;-77
2023/12/04 10:15:53;;;;;;;;;6.25;6.00;;;;;;;;5047016;28;11515;-75
2023/12/04 10:18:27;;;;;;;;;10.00;10.00;;;;;;;;5052837;28;11659;-80
2023/12/04 10:20:55;;;;;;;;;5.00;5.00;;;;;;;;5051142;28;11499;-77
2023/12/04 10:23:24;;;;;;;;;6.25;4.00;;;;;;;;5052279;28;11502;-76
2023/12/04 10:25:51;;;;;;;;;5.75;5.75;;;;;;;;5051510;28;11610;-77
2023/12/04 10:28:20;;;;;;;;;8.00;6.00;;;;;;;;5051990;28;11517;-78
2023/12/04 10:30:47;;;;;;;;;7.00;6.00;;;;;;;;5051229;28;11442;-75
2023/12/04 10:33:15;;;;;;;;;6.50;2.75;;;;;;;;5051785;28;11517;-76
2023/12/04 10:35:43;;;;;;;;;3.00;3.00;;;;;;;;5050708;28;11523;-78
2023/12/04 10:38:10;;;;;;;;;5.50;5.50;;;;;;;;5044114;28;11632;-75
2023/12/04 10:40:39;;;;;;;;;6.00;6.00;;;;;;;;5050220;28;11510;-83
2023/12/04 10:43:12;;;;;;;;;3.00;3.00;;;;;;;;5035154;28;11576;-80
2023/12/04 10:45:41;;;;;;;;;6.00;6.00;;;;;;;;5048893;28;11481;-77
2023/12/04 10:48:09;;;;;;;;;6.50;6.00;;;;;;;;5041863;28;11490;-76
2023/12/04 10:50:38;;;;;;;;;6.75;5.00;;;;;;;;5050367;28;11636;-76
2023/12/04 10:53:06;;;;;;;;;4.00;4.00;;;;;;;;5039832;28;11517;-76
2023/12/04 10:55:35;;;;;;;;;5.00;5.00;;;;;;;;5044762;28;11493;-78
2023/12/04 10:58:07;;;;;;;;;2.00;2.00;;;;;;;;5039731;28;11453;-78
2023/12/04 11:00:36;;;;;;;;;5.00;5.00;;;;;;;;5050012;28;11372;-76
2023/12/04 11:03:08;;;;;;;;;4.50;4.50;;;;;;;;5044886;28;11456;-76
2023/12/04 11:05:40;;;;;;;;;6.00;3.00;;;;;;;;5053951;28;11574;-79
2023/12/04 11:08:09;;;;;;;;;2.75;2.75;;;;;;;;5057088;28;11530;-76
2023/12/04 11:10:42;;;;;;;;;4.25;4.25;;;;;;;;5050608;28;11459;-78
2023/12/04 11:13:16;;;;;;;;;2.75;2.75;;;;;;;;5049477;28;11557;-77
2023/12/04 11:15:50;;;;;;;;;6.00;3.50;;;;;;;;5054106;28;11512;-77
2023/12/04 11:18:18;;;;;;;;;7.25;6.00;;;;;;;;5055338;28;11509;-79
2023/12/04 11:20:49;;;;;;;;;5.75;5.75;;;;;;;;5054349;28;11483;-77
2023/12/04 11:23:16;;;;;;;;;6.25;4.25;;;;;;;;5044514;28;11449;-77
2023/12/04 11:25:45;;;;;;;;;7.25;7.25;;;;;;;;5054424;28;11503;-79
2023/12/04 11:28:16;;;;;;;;;11.25;7.00;;;;;;;;5047075;28;11476;-75
2023/12/04 11:30:44;;;;;;;;;7.25;7.25;;;;;;;;5041265;28;11435;-76
2023/12/04 11:33:11;;;;;;;;;6.75;4.25;;;;;;;;5044774;28;12222;-77
2023/12/04 11:35:40;;;;;;;;;2.50;2.50;;;;;;;;5040684;28;11449;-79
2023/12/04 11:38:09;;;;;;;;;3.00;3.00;;;;;;;;5044272;28;11484;-78
2023/12/04 11:40:37;;;;;;;;;6.75;6.75;;;;;;;;5046705;28;11442;-79
2023/12/04 11:43:22;;;;;;;;;3.75;3.75;;;;;;;;5050081;28;11442;-76
2023/12/04 11:45:50;;;;;;;;;5.75;5.50;;;;;;;;5040209;28;11464;-77
2023/12/04 11:48:17;;;;;;;;;6.50;6.50;;;;;;;;5044651;28;11478;-75
2023/12/04 11:50:45;;;;;;;;;6.50;6.50;;;;;;;;5041776;28;11577;-79
2023/12/04 11:53:13;;;;;;;;;7.25;7.25;;;;;;;;5044332;28;11459;-80
2023/12/04 11:55:41;;;;;;;;;4.25;4.25;;;;;;;;5038832;28;11506;-74
2023/12/04 11:58:10;;;;;;;;;6.00;4.00;;;;;;;;5046939;28;11437;-78
2023/12/04 12:00:38;;;;;;;;;7.00;4.00;;;;;;;;5032926;28;11390;-78
2023/12/04 12:03:09;;;;;;;;;6.25;6.25;;;;;;;;5048751;28;11505;-79
2023/12/04 12:05:38;;;;;;;;;4.00;4.00;;;;;;;;5049708;28;11480;-83
2023/12/04 12:08:07;;;;;;;;;3.75;3.75;;;;;;;;5046257;28;11475;-78
2023/12/04 12:10:35;;;;;;;;;4.50;4.50;;;;;;;;5050391;28;11461;-78
2023/12/04 12:13:02;;;;;;;;;4.25;2.75;;;;;;;;5048058;28;11594;-76
2023/12/04 12:15:30;;;;;;;;;5.00;5.00;;;;;;;;5039389;28;11538;-77
2023/12/04 12:17:57;;;;;;;;;6.00;4.00;;;;;;;;5040837;28;11562;-77
2023/12/04 12:20:26;;;;;;;;;6.50;3.00;;;;;;;;5045066;28;11845;-78
2023/12/04 12:22:54;;;;;;;;;4.50;3.00;;;;;;;;5039945;28;11139;-77
2023/12/04 12:25:22;;;;;;;;;7.25;6.75;;;;;;;;5041267;28;11145;-75
2023/12/04 12:27:49;;;;;;;;;3.50;3.50;;;;;;;;5039052;28;11461;-74
2023/12/04 12:30:17;;;;;;;;;2.75;2.75;;;;;;;;5044355;28;11042;-75
2023/12/04 12:32:44;;;;;;;;;4.00;4.00;;;;;;;;5048503;28;11044;-75
2023/12/04 12:35:11;;;;;;;;;3.00;3.00;;;;;;;;5046619;28;11207;-75
2023/12/04 12:37:41;;;;;;;;;4.00;4.00;;;;;;;;5039311;28;10998;-76
2023/12/04 12:40:10;;;;;;;;;3.00;3.00;;;;;;;;5044411;28;11070;-77
2023/12/04 12:42:41;;;;;;;;;3.50;3.50;;;;;;;;5047804;28;11069;-75
2023/12/04 12:45:11;;;;;;;;;10.00;4.00;;;;;;;;5045658;28;10864;-77
2023/12/04 12:47:38;;;;;;;;;4.00;4.00;;;;;;;;5048963;28;10846;-76
2023/12/04 12:50:11;;;;;;;;;3.00;3.00;;;;;;;;5049262;28;10889;-74
2023/12/04 12:52:39;;;;;;;;;4.00;4.00;;;;;;;;5049226;28;10827;-76
2023/12/04 12:55:09;;;;;;;;;2.25;2.25;;;;;;;;5039204;28;10880;-77
2023/12/04 12:57:36;;;;;;;;;4.50;3.50;;;;;;;;5051007;28;10809;-76
2023/12/04 13:00:07;;;;;;;;;5.50;5.00;;;;;;;;5048031;28;10586;-74
2023/12/04 13:02:38;;;;;;;;;2.75;2.75;;;;;;;;5047841;28;10780;-76
2023/12/04 13:05:06;;;;;;;;;3.25;3.25;;;;;;;;5050169;28;10687;-75
2023/12/04 13:07:41;;;;;;;;;7.00;4.00;;;;;;;;5040501;28;10544;-77
2023/12/04 13:10:10;;;;;;;;;8.00;8.00;;;;;;;;5051623;28;10593;-75
2023/12/04 13:12:38;;;;;;;;;3.25;3.25;;;;;;;;5046533;28;10760;-74
2023/12/04 13:15:08;;;;;;;;;3.00;3.00;;;;;;;;5042346;28;10642;-74
2023/12/04 13:17:35;;;;;;;;;4.25;4.25;;;;;;;;5042375;28;10449;-74
2023/12/04 13:20:08;;;;;;;;;1.25;1.25;;;;;;;;5048366;28;10487;-74
2023/12/04 13:22:35;;;;;;;;;4.75;3.00;;;;;;;;5044201;28;10712;-75
2023/12/04 13:25:07;;;;;;;;;4.00;4.00;;;;;;;;5035867;28;10510;-76
2023/12/04 13:27:36;;;;;;;;;5.50;5.50;;;;;;;;5036158;28;10532;-75
2023/12/04 13:30:03;;;;;;;;;7.50;4.75;;;;;;;;5047606;28;10482;-74
2023/12/04 13:32:30;;;;;;;;;3.00;3.00;;;;;;;;5033904;28;10645;-76
2023/12/04 13:34:57;;;;;;;;;4.50;4.50;;;;;;;;5041488;28;10571;-76
2023/12/04 13:37:26;;;;;;;;;8.00;5.00;;;;;;;;5041491;28;10612;-76
2023/12/04 13:39:58;;;;;;;;;3.00;3.00;;;;;;;;5035567;28;11438;-75
2023/12/04 13:45:12;;;;;;;;;4.00;4.00;;;;;;;;5042283;28;10407;-78
2023/12/04 13:47:39;;;;;;;;;4.00;4.00;;;;;;;;5047424;28;11221;-77
2023/12/04 13:50:09;;;;;;;;;5.00;5.00;;;;;;;;5045762;28;10594;-76
2023/12/04 13:52:38;;;;;;;;;4.25;4.25;;;;;;;;5047299;28;10472;-75
2023/12/04 13:55:14;;;;;;;;;5.00;5.00;;;;;;;;5046084;28;10475;-77
2023/12/04 13:57:56;;;;;;;;;4.00;4.00;;;;;;;;5047024;28;10387;-76
2023/12/04 14:00:25;;;;;;;;;4.25;4.25;;;;;;;;5042947;28;10499;-76
2023/12/04 14:02:53;;;;;;;;;4.00;3.25;;;;;;;;5043813;28;10497;-76
2023/12/04 14:05:21;;;;;;;;;4.50;4.50;;;;;;;;5049257;28;10388;-78
2023/12/04 14:07:49;;;;;;;;;3.00;3.00;;;;;;;;5047698;28;10403;-76
2023/12/04 14:10:16;;;;;;;;;7.25;3.25;;;;;;;;5047582;28;10316;-75
2023/12/04 14:12:44;;;;;;;;;3.00;3.00;;;;;;;;5047498;28;10521;-75
2023/12/04 14:15:11;;;;;;;;;3.50;3.50;;;;;;;;5044686;28;10296;-76
2023/12/04 14:17:40;;;;;;;;;4.00;4.00;;;;;;;;5046228;28;10473;-76
2023/12/04 14:20:15;;;;;;;;;3.75;2.75;;;;;;;;5047208;28;10302;-76
2023/12/04 14:22:46;;;;;;;;;2.75;2.75;;;;;;;;5045776;28;10458;-77
2023/12/04 14:25:13;;;;;;;;;4.00;4.00;;;;;;;;5047496;28;10242;-75
2023/12/04 14:27:43;;;;;;;;;2.75;2.75;;;;;;;;5047719;28;10306;-76
2023/12/04 14:30:12;;;;;;;;;4.75;3.25;;;;;;;;5047735;28;10307;-74
2023/12/04 14:32:41;;;;;;;;;2.00;2.00;;;;;;;;5029610;28;10330;-77
2023/12/04 14:35:09;;;;;;;;;3.50;3.50;;;;;;;;5047026;28;10979;-77
2023/12/04 14:37:36;;;;;;;;;2.75;2.75;;;;;;;;5047333;28;10257;-78
2023/12/04 14:40:04;;;;;;;;;1.00;1.00;;;;;;;;5047507;28;10191;-78
2023/12/04 14:42:31;;;;;;;;;3.00;3.00;;;;;;;;5048641;28;10090;-79
2023/12/04 14:44:59;;;;;;;;;3.00;3.00;;;;;;;;5048164;28;10189;-77
2023/12/04 14:47:26;;;;;;;;;3.75;3.75;;;;;;;;5049732;28;10203;-78
2023/12/04 14:49:56;;;;;;;;;4.75;3.00;;;;;;;;5049737;28;10118;-76